Time;durP1;ratioP1;P1;durP2;ratioP2;P2;SDS_P1;SDS_P2;PMS_P1;PMS_P2;Temp;Humidity;BMP_temperature;BMP_pressure;BME280_temperature;BME280_humidity;BME280_pressure;Samples;Min_cycle;Max_cycle;Signal;HPM_P1;HPM_P2
2024/01/30 00:00:57;;;;;;;28.65;14.00;;;;;;;5.32;100.00;102419.63;5013407;28;20049;-82
2024/01/30 00:03:22;;;;;;;27.55;13.88;;;;;;;5.61;100.00;102423.22;5007735;28;20034;-80
2024/01/30 00:05:47;;;;;;;27.27;13.00;;;;;;;5.66;100.00;102412.66;4995411;28;20669;-81
2024/01/30 00:08:13;;;;;;;26.13;13.15;;;;;;;5.66;100.00;102418.63;4990675;28;20480;-80
2024/01/30 00:10:38;;;;;;;24.80;12.88;;;;;;;5.62;100.00;102413.72;5010605;28;20033;-79
2024/01/30 00:13:04;;;;;;;27.38;13.93;;;;;;;5.63;100.00;102413.66;5006033;28;20088;-80
2024/01/30 00:15:29;;;;;;;28.55;12.85;;;;;;;5.71;100.00;102412.38;4993012;28;20084;-81
2024/01/30 00:17:55;;;;;;;29.25;14.68;;;;;;;5.67;100.00;102414.31;5008592;28;20058;-79
2024/01/30 00:20:20;;;;;;;29.95;13.73;;;;;;;5.71;100.00;102410.66;4995453;28;20034;-81
2024/01/30 00:22:46;;;;;;;29.00;14.63;;;;;;;5.73;100.00;102413.16;4997686;28;21065;-79
2024/01/30 00:25:11;;;;;;;35.00;15.55;;;;;;;5.72;100.00;102417.44;5005213;28;20038;-81
2024/01/30 00:27:37;;;;;;;31.85;15.43;;;;;;;5.76;100.00;102410.38;5023155;28;20057;-79
2024/01/30 00:30:02;;;;;;;29.23;15.60;;;;;;;5.67;100.00;102411.75;5004345;28;20071;-81
2024/01/30 00:32:28;;;;;;;26.08;15.38;;;;;;;5.82;100.00;102403.16;5005081;28;20393;-81
2024/01/30 00:34:53;;;;;;;33.80;15.60;;;;;;;5.84;100.00;102406.47;4993127;28;20408;-80
2024/01/30 00:37:19;;;;;;;30.70;15.75;;;;;;;5.94;100.00;102404.22;4989986;28;20404;-79
2024/01/30 00:39:44;;;;;;;31.90;14.82;;;;;;;5.92;100.00;102418.91;5020546;28;20669;-80
2024/01/30 00:42:10;;;;;;;36.50;16.17;;;;;;;5.89;100.00;102406.22;5008023;28;20496;-81
2024/01/30 00:44:38;;;;;;;30.25;16.33;;;;;;;5.97;100.00;102406.66;5001365;28;20038;-81
2024/01/30 00:47:04;;;;;;;32.03;16.13;;;;;;;5.98;100.00;102408.28;5012622;28;20115;-80
2024/01/30 00:49:29;;;;;;;28.67;15.30;;;;;;;5.96;100.00;102409.31;5023843;28;20041;-80
2024/01/30 00:51:55;;;;;;;36.13;16.52;;;;;;;6.05;100.00;102406.22;4992221;28;20069;-82
2024/01/30 00:54:20;;;;;;;28.92;15.45;;;;;;;6.06;100.00;102407.88;5006514;28;20037;-81
2024/01/30 00:56:46;;;;;;;30.30;15.90;;;;;;;6.21;100.00;102408.75;5020071;28;20112;-81
2024/01/30 00:59:11;;;;;;;30.35;16.27;;;;;;;6.08;100.00;102410.34;5007820;28;20050;-81
2024/01/30 01:01:37;;;;;;;30.75;16.20;;;;;;;6.02;100.00;102417.50;5004673;28;20040;-81
2024/01/30 01:04:02;;;;;;;33.15;15.75;;;;;;;5.96;100.00;102414.47;4991345;28;20881;-79
2024/01/30 01:06:28;;;;;;;30.75;16.05;;;;;;;5.85;100.00;102413.28;5028526;28;20424;-80
2024/01/30 01:08:53;;;;;;;31.75;16.33;;;;;;;5.85;100.00;102409.88;4992355;28;20084;-77
2024/01/30 01:11:18;;;;;;;32.90;16.33;;;;;;;5.95;100.00;102410.19;4993396;28;20037;-81
2024/01/30 01:13:44;;;;;;;27.38;15.57;;;;;;;5.79;100.00;102408.47;5028995;28;20389;-79
2024/01/30 01:16:10;;;;;;;32.65;16.63;;;;;;;5.81;100.00;102414.38;5011429;28;20030;-80
2024/01/30 01:18:35;;;;;;;30.67;16.38;;;;;;;5.82;100.00;102413.47;5006638;28;20038;-82
2024/01/30 01:21:01;;;;;;;30.83;16.52;;;;;;;5.80;100.00;102406.72;4993509;28;20022;-80
2024/01/30 01:23:26;;;;;;;29.58;15.02;;;;;;;5.83;100.00;102412.53;5006015;28;20056;-79
2024/01/30 01:25:51;;;;;;;30.80;15.57;;;;;;;5.88;100.00;102408.88;5008169;28;20038;-81
2024/01/30 01:28:17;;;;;;;29.95;15.60;;;;;;;5.84;100.00;102414.19;5008446;28;20049;-80
2024/01/30 01:30:43;;;;;;;32.67;16.02;;;;;;;5.94;100.00;102409.38;5004770;28;20045;-80
2024/01/30 01:33:09;;;;;;;27.77;15.90;;;;;;;5.89;100.00;102408.78;5024800;28;20029;-81
2024/01/30 01:35:34;;;;;;;34.42;15.45;;;;;;;6.00;100.00;102410.78;5008101;28;20037;-80
2024/01/30 01:38:00;;;;;;;31.17;15.13;;;;;;;6.02;100.00;102409.78;5007328;28;20040;-80
2024/01/30 01:40:27;;;;;;;36.97;15.75;;;;;;;5.99;100.00;102407.41;5024190;28;20026;-80
2024/01/30 01:42:54;;;;;;;24.88;14.10;;;;;;;5.99;100.00;102407.41;4994896;28;20045;-81
2024/01/30 01:45:20;;;;;;;27.63;14.77;;;;;;;5.93;100.00;102401.72;4990211;28;20038;-82
2024/01/30 01:47:50;;;;;;;28.17;13.68;;;;;;;5.93;100.00;102410.25;5005304;28;20509;-79
2024/01/30 01:50:19;;;;;;;32.50;16.08;;;;;;;6.01;100.00;102397.84;5023467;28;20080;-81
2024/01/30 01:52:47;;;;;;;28.20;14.20;;;;;;;6.05;100.00;102398.50;5005471;28;20464;-80
2024/01/30 01:55:13;;;;;;;26.13;13.95;;;;;;;6.02;100.00;102404.63;5005041;28;20404;-79
2024/01/30 01:57:39;;;;;;;33.58;14.88;;;;;;;5.95;100.00;102402.47;5006325;28;20113;-79
2024/01/30 02:00:05;;;;;;;34.28;14.48;;;;;;;5.92;100.00;102397.50;4987356;28;20092;-80
2024/01/30 02:02:36;;;;;;;27.13;14.40;;;;;;;5.82;100.00;102398.00;5007843;28;20499;-80
2024/01/30 02:05:02;;;;;;;31.50;15.43;;;;;;;5.88;100.00;102393.41;5008933;28;20463;-79
2024/01/30 02:07:28;;;;;;;25.90;14.75;;;;;;;5.74;100.00;102395.03;4991071;28;20137;-81
2024/01/30 02:09:54;;;;;;;35.47;14.60;;;;;;;5.78;100.00;102383.66;4989874;28;20496;-80
2024/01/30 02:12:20;;;;;;;29.58;14.82;;;;;;;5.77;100.00;102386.31;5023809;28;20037;-78
2024/01/30 02:14:46;;;;;;;29.52;15.13;;;;;;;5.74;100.00;102384.72;5002165;28;20049;-80
2024/01/30 02:17:12;;;;;;;31.67;15.65;;;;;;;5.73;100.00;102379.69;5022517;28;20615;-82
2024/01/30 02:19:38;;;;;;;28.27;14.20;;;;;;;5.76;100.00;102376.91;4990774;28;20065;-80
2024/01/30 02:22:04;;;;;;;29.52;15.27;;;;;;;5.89;100.00;102377.88;5008617;28;20859;-79
2024/01/30 02:24:30;;;;;;;25.80;14.50;;;;;;;5.74;100.00;102371.84;5008275;28;20042;-81
2024/01/30 02:26:55;;;;;;;31.23;15.25;;;;;;;5.92;100.00;102376.91;4990380;28;20038;-82
2024/01/30 02:29:21;;;;;;;34.42;14.55;;;;;;;5.93;100.00;102363.91;5004419;28;20062;-78
2024/01/30 02:31:46;;;;;;;31.38;14.38;;;;;;;5.84;100.00;102365.28;5003189;28;20056;-80
2024/01/30 02:34:12;;;;;;;26.83;14.40;;;;;;;5.93;100.00;102369.06;4987091;28;20044;-81
2024/01/30 02:36:38;;;;;;;32.53;15.07;;;;;;;5.88;100.00;102360.78;4987305;28;20068;-82
2024/01/30 02:39:03;;;;;;;29.45;14.48;;;;;;;5.84;100.00;102367.88;4987028;28;20030;-81
2024/01/30 02:41:29;;;;;;;31.02;14.45;;;;;;;5.90;100.00;102358.13;4988719;28;20038;-80
2024/01/30 02:43:54;;;;;;;27.55;14.23;;;;;;;5.90;100.00;102356.38;4989420;28;20045;-81
2024/01/30 02:46:20;;;;;;;26.90;13.88;;;;;;;5.89;100.00;102359.88;5005619;28;20090;-79
2024/01/30 02:48:45;;;;;;;29.17;14.07;;;;;;;5.85;100.00;102361.78;5005287;28;20049;-82
2024/01/30 02:51:11;;;;;;;30.15;14.77;;;;;;;5.79;100.00;102356.97;5021039;28;20054;-81
2024/01/30 02:53:37;;;;;;;28.55;14.85;;;;;;;5.77;100.00;102361.41;5001970;28;20057;-79
2024/01/30 02:56:03;;;;;;;26.70;13.55;;;;;;;5.82;100.00;102361.97;5005718;28;20033;-82
2024/01/30 02:58:28;;;;;;;27.05;14.50;;;;;;;5.90;100.00;102358.13;4992277;28;20181;-81
2024/01/30 03:00:54;;;;;;;27.73;13.88;;;;;;;5.82;100.00;102358.53;5011342;28;20030;-80
2024/01/30 03:03:19;;;;;;;21.38;12.98;;;;;;;5.79;100.00;102359.56;5009461;28;20531;-80
2024/01/30 03:05:45;;;;;;;25.63;14.10;;;;;;;5.88;100.00;102355.66;5008635;28;20408;-81
2024/01/30 03:08:10;;;;;;;27.63;14.57;;;;;;;5.79;100.00;102356.97;4994593;28;20698;-82
2024/01/30 03:10:36;;;;;;;25.30;12.77;;;;;;;5.82;100.00;102348.25;4989138;28;20977;-80
2024/01/30 03:13:01;;;;;;;30.58;14.15;;;;;;;5.77;100.00;102350.28;5023354;28;20034;-79
2024/01/30 03:15:27;;;;;;;27.95;14.55;;;;;;;5.75;100.00;102349.53;5006833;28;20048;-81
2024/01/30 03:17:53;;;;;;;29.13;14.18;;;;;;;5.75;100.00;102354.69;5011131;28;20037;-81
2024/01/30 03:20:19;;;;;;;27.50;13.95;;;;;;;5.64;100.00;102350.13;4999182;28;20030;-81
2024/01/30 03:22:45;;;;;;;31.08;14.43;;;;;;;5.63;100.00;102349.31;4993327;28;20481;-81
2024/01/30 03:25:10;;;;;;;24.48;13.73;;;;;;;5.64;100.00;102350.13;4997167;28;20070;-81
2024/01/30 03:27:35;;;;;;;27.33;13.57;;;;;;;5.68;100.00;102345.66;5009684;28;20048;-80
2024/01/30 03:30:01;;;;;;;28.17;14.63;;;;;;;5.77;100.00;102347.69;4993277;28;20044;-80
2024/01/30 03:32:27;;;;;;;24.60;13.45;;;;;;;5.71;100.00;102354.03;5002737;28;20034;-80
2024/01/30 03:34:53;;;;;;;35.58;13.13;;;;;;;5.68;100.00;102355.94;5010369;28;20025;-81
2024/01/30 03:37:18;;;;;;;24.38;13.77;;;;;;;5.64;100.00;102350.13;5011429;28;20022;-80
2024/01/30 03:39:44;;;;;;;30.77;14.25;;;;;;;5.78;100.00;102357.06;5009303;28;20610;-81
2024/01/30 03:42:09;;;;;;;25.83;13.77;;;;;;;5.76;100.00;102348.59;5010501;28;20029;-80
2024/01/30 03:44:35;;;;;;;28.05;13.50;;;;;;;5.70;100.00;102346.38;5009766;28;20046;-79
2024/01/30 03:47:00;;;;;;;25.45;12.75;;;;;;;5.77;100.00;102339.97;5012250;28;20036;-79
2024/01/30 03:49:25;;;;;;;29.65;15.25;;;;;;;5.66;100.00;102338.81;5005225;28;20038;-78
2024/01/30 03:51:51;;;;;;;26.35;13.27;;;;;;;5.70;100.00;102330.94;4987668;28;20472;-80
2024/01/30 03:54:16;;;;;;;25.02;13.57;;;;;;;5.68;100.00;102335.34;5021066;28;20042;-80
2024/01/30 03:56:42;;;;;;;23.42;12.57;;;;;;;5.69;100.00;102339.56;5004739;28;20025;-82
2024/01/30 03:59:07;;;;;;;31.25;13.15;;;;;;;5.62;100.00;102327.06;5006149;28;20026;-81
2024/01/30 04:01:33;;;;;;;28.38;13.05;;;;;;;5.59;100.00;102326.38;4989414;28;20034;-81
2024/01/30 04:03:58;;;;;;;29.15;13.88;;;;;;;5.57;100.00;102326.47;4999761;28;20034;-81
2024/01/30 04:06:24;;;;;;;27.27;13.38;;;;;;;5.55;100.00;102325.72;5023824;28;20638;-80
2024/01/30 04:08:49;;;;;;;34.47;13.88;;;;;;;5.55;100.00;102322.34;4989977;28;20034;-79
2024/01/30 04:11:15;;;;;;;26.98;13.25;;;;;;;5.52;100.00;102318.19;5005934;28;20037;-79
2024/01/30 04:13:42;;;;;;;25.63;13.63;;;;;;;5.50;100.00;102322.59;5024058;28;20042;-81
2024/01/30 04:16:08;;;;;;;27.80;12.60;;;;;;;5.44;100.00;102318.63;5024565;28;20113;-80
2024/01/30 04:18:34;;;;;;;28.02;14.05;;;;;;;5.44;100.00;102322.94;5009232;28;20041;-79
2024/01/30 04:20:59;;;;;;;27.92;13.75;;;;;;;5.41;100.00;102316.22;5027499;28;20448;-81
2024/01/30 04:23:24;;;;;;;27.58;13.18;;;;;;;5.41;100.00;102312.81;4992040;28;20042;-79
2024/01/30 04:25:50;;;;;;;25.40;12.98;;;;;;;5.36;100.00;102310.50;5006248;28;20488;-81
2024/01/30 04:28:15;;;;;;;27.65;13.93;;;;;;;5.49;100.00;102313.22;4991556;28;20202;-80
2024/01/30 04:30:41;;;;;;;26.98;13.02;;;;;;;5.37;100.00;102316.47;5013738;28;20030;-81
2024/01/30 04:33:06;;;;;;;30.65;14.57;;;;;;;5.40;100.00;102317.13;4989725;28;20041;-82
2024/01/30 04:35:32;;;;;;;31.63;14.07;;;;;;;5.47;100.00;102315.88;5009488;28;20037;-81
2024/01/30 04:37:57;;;;;;;23.05;12.48;;;;;;;5.40;100.00;102329.97;4989766;28;20034;-78
2024/01/30 04:40:23;;;;;;;32.83;14.98;;;;;;;5.38;100.00;102320.69;5013404;28;20032;-81
2024/01/30 04:42:49;;;;;;;28.63;14.27;;;;;;;5.36;100.00;102325.09;5006152;28;20592;-81
2024/01/30 04:45:14;;;;;;;29.42;14.02;;;;;;;5.42;100.00;102322.19;4995499;28;20072;-81
2024/01/30 04:47:40;;;;;;;29.77;13.80;;;;;;;5.48;100.00;102321.84;5008120;28;20064;-79
2024/01/30 04:50:08;;;;;;;26.98;14.20;;;;;;;5.35;100.00;102319.13;5010407;28;20038;-81
2024/01/30 04:52:34;;;;;;;28.75;14.48;;;;;;;5.48;100.00;102319.25;5003928;28;20030;-79
2024/01/30 04:54:59;;;;;;;28.55;14.23;;;;;;;5.61;100.00;102316.84;5012853;28;20025;-81
2024/01/30 04:57:26;;;;;;;24.48;13.35;;;;;;;5.53;100.00;102316.44;5027665;28;20034;-80
2024/01/30 04:59:51;;;;;;;28.42;14.13;;;;;;;5.56;100.00;102316.28;5024703;28;20041;-81
2024/01/30 05:02:17;;;;;;;27.90;14.82;;;;;;;5.56;100.00;102317.09;5008102;28;20104;-81
2024/01/30 05:04:42;;;;;;;28.17;14.07;;;;;;;5.44;100.00;102316.06;5008405;28;20034;-80
2024/01/30 05:07:07;;;;;;;38.10;15.40;;;;;;;5.38;100.00;102307.84;5010893;28;20033;-81
2024/01/30 05:09:33;;;;;;;28.35;13.90;;;;;;;5.35;100.00;102311.41;5010129;28;20045;-81
2024/01/30 05:11:58;;;;;;;30.50;13.95;;;;;;;5.41;100.00;102311.06;4987355;28;20039;-82
2024/01/30 05:14:24;;;;;;;27.73;13.95;;;;;;;5.36;100.00;102310.50;4991846;28;20045;-82
2024/01/30 05:16:49;;;;;;;27.02;14.68;;;;;;;5.32;100.00;102305.63;5009914;28;20495;-82
2024/01/30 05:19:15;;;;;;;23.67;13.40;;;;;;;5.22;100.00;102313.84;4990579;28;20034;-80
2024/01/30 05:21:41;;;;;;;27.75;14.05;;;;;;;5.32;100.00;102308.19;5007962;28;20037;-79
2024/01/30 05:24:07;;;;;;;28.05;14.68;;;;;;;5.29;100.00;102309.16;5005911;28;20057;-79
2024/01/30 05:26:32;;;;;;;27.02;13.60;;;;;;;5.11;100.00;102303.31;4996389;28;20026;-81
2024/01/30 05:28:58;;;;;;;34.92;15.80;;;;;;;5.10;100.00;102296.50;4993222;28;20042;-80
2024/01/30 05:31:26;;;;;;;30.38;14.10;;;;;;;4.98;100.00;102292.84;4996069;28;20042;-79
2024/01/30 05:33:51;;;;;;;29.40;15.15;;;;;;;4.94;100.00;102298.25;5004423;28;20094;-80
2024/01/30 05:36:16;;;;;;;32.00;15.15;;;;;;;4.97;100.00;102292.94;5012941;28;20114;-80
2024/01/30 05:38:42;;;;;;;26.17;14.63;;;;;;;4.95;100.00;102292.19;5008571;28;20029;-80
2024/01/30 05:41:08;;;;;;;27.60;14.63;;;;;;;4.94;100.00;102285.41;5025759;28;20032;-79
2024/01/30 05:43:34;;;;;;;28.45;14.95;;;;;;;5.05;100.00;102289.03;5025475;28;20030;-81
2024/01/30 05:45:59;;;;;;;29.02;14.77;;;;;;;4.99;100.00;102291.94;5009432;28;20030;-80
2024/01/30 05:48:25;;;;;;;30.45;15.23;;;;;;;5.10;100.00;102295.66;5024405;28;20041;-81
2024/01/30 05:50:50;;;;;;;30.58;14.02;;;;;;;5.02;100.00;102290.94;5026578;28;20033;-80
2024/01/30 05:53:16;;;;;;;26.67;14.43;;;;;;;5.19;100.00;102290.03;5011479;28;20041;-80
2024/01/30 05:55:41;;;;;;;31.77;16.30;;;;;;;5.25;100.00;102295.69;5029998;28;20373;-81
2024/01/30 05:58:07;;;;;;;25.00;14.20;;;;;;;5.24;100.00;102286.28;5026540;28;20092;-78
2024/01/30 06:00:32;;;;;;;30.02;15.18;;;;;;;5.20;100.00;102287.38;5011646;28;20017;-81
2024/01/30 06:02:57;;;;;;;28.27;16.30;;;;;;;5.20;100.00;102291.69;5004149;28;20488;-80
2024/01/30 06:05:23;;;;;;;31.88;15.52;;;;;;;5.18;100.00;102289.19;4997417;28;20033;-80
2024/01/30 06:07:48;;;;;;;30.58;15.80;;;;;;;5.21;100.00;102299.31;5009242;28;20037;-82
2024/01/30 06:10:14;;;;;;;27.83;14.48;;;;;;;5.22;100.00;102290.69;5029361;28;20041;-81
2024/01/30 06:12:39;;;;;;;34.58;14.90;;;;;;;5.22;100.00;102290.69;5014863;28;20037;-81
2024/01/30 06:15:06;;;;;;;35.63;15.02;;;;;;;5.14;100.00;102276.59;4997721;28;20119;-78
2024/01/30 06:17:32;;;;;;;35.25;14.93;;;;;;;5.28;100.00;102286.13;5015029;28;20497;-81
2024/01/30 06:19:57;;;;;;;28.15;15.50;;;;;;;5.23;100.00;102294.91;4993386;28;20044;-82
2024/01/30 06:22:23;;;;;;;29.75;15.52;;;;;;;5.26;100.00;102287.03;5012515;28;20044;-82
2024/01/30 06:24:48;;;;;;;34.00;16.20;;;;;;;5.28;100.00;102286.94;5029679;28;20041;-81
2024/01/30 06:27:15;;;;;;;27.15;14.93;;;;;;;5.29;100.00;102292.91;5013487;28;20045;-81
2024/01/30 06:29:42;;;;;;;24.55;14.25;;;;;;;5.15;100.00;102281.66;4996579;28;20044;-81
2024/01/30 06:32:08;;;;;;;35.13;15.55;;;;;;;5.19;100.00;102277.16;4993266;28;20042;-81
2024/01/30 06:34:33;;;;;;;30.98;15.73;;;;;;;5.22;100.00;102285.53;5011865;28;20053;-80
2024/01/30 06:36:58;;;;;;;28.70;14.40;;;;;;;5.32;100.00;102295.31;4995401;28;20084;-82
2024/01/30 06:39:25;;;;;;;31.88;15.50;;;;;;;5.32;100.00;102297.91;5012054;28;20045;-80
2024/01/30 06:41:50;;;;;;;34.38;16.33;;;;;;;5.31;100.00;102298.78;5029999;28;20087;-80
2024/01/30 06:44:16;;;;;;;30.77;15.63;;;;;;;5.38;100.00;102300.13;5009259;28;20917;-80
2024/01/30 06:46:41;;;;;;;29.40;15.27;;;;;;;5.34;100.00;102301.22;4996784;28;20025;-81
2024/01/30 06:49:06;;;;;;;29.45;15.07;;;;;;;5.33;100.00;102296.97;4993069;28;20049;-80
2024/01/30 06:51:32;;;;;;;29.70;15.25;;;;;;;5.23;100.00;102294.06;4995601;28;20037;-81
2024/01/30 06:53:57;;;;;;;28.33;15.80;;;;;;;5.27;100.00;102300.72;5011560;28;20056;-82
2024/01/30 06:56:23;;;;;;;30.55;15.07;;;;;;;5.37;100.00;102293.31;4993639;28;20400;-81
2024/01/30 06:58:52;;;;;;;26.95;15.23;;;;;;;5.44;100.00;102298.03;4992288;28;20041;-81
2024/01/30 07:01:17;;;;;;;29.73;14.55;;;;;;;5.40;100.00;102298.28;5008789;28;20385;-82
2024/01/30 07:03:43;;;;;;;26.23;13.77;;;;;;;5.43;100.00;102293.81;4995767;28;20034;-82
2024/01/30 07:06:10;;;;;;;28.63;14.98;;;;;;;5.48;100.00;102296.09;5008580;28;20061;-81
2024/01/30 07:08:38;;;;;;;32.05;15.05;;;;;;;5.43;100.00;102300.69;4991002;28;20503;-81
2024/01/30 07:11:07;;;;;;;32.10;15.27;;;;;;;5.43;100.00;102300.69;5010326;28;20038;-82
2024/01/30 07:13:34;;;;;;;31.65;14.32;;;;;;;5.52;100.00;102301.91;5009361;28;20080;-80
2024/01/30 07:15:59;;;;;;;26.45;14.48;;;;;;;5.57;100.00;102307.63;4990960;28;20503;-82
2024/01/30 07:18:25;;;;;;;30.65;14.80;;;;;;;5.56;100.00;102304.25;4993162;28;20034;-81
2024/01/30 07:20:50;;;;;;;29.17;14.50;;;;;;;5.57;100.00;102308.47;5008911;28;20482;-81
2024/01/30 07:23:17;;;;;;;31.98;15.88;;;;;;;5.56;100.00;102308.56;5012498;28;20053;-80
2024/01/30 07:25:49;;;;;;;33.70;15.27;;;;;;;5.56;100.00;102313.72;5016965;28;20033;-80
2024/01/30 07:28:18;;;;;;;26.70;15.02;;;;;;;5.58;100.00;102317.84;4989845;28;20470;-80
2024/01/30 07:30:43;;;;;;;29.17;15.32;;;;;;;5.56;100.00;102326.59;5009537;28;20064;-83
2024/01/30 07:33:09;;;;;;;36.25;19.52;;;;;;;5.45;100.00;102332.31;5006587;28;20034;-78
2024/01/30 07:35:35;;;;;;;32.05;15.98;;;;;;;5.56;100.00;102335.13;5008569;28;20025;-79
2024/01/30 07:38:01;;;;;;;30.63;14.63;;;;;;;5.68;100.00;102336.16;5010994;28;20041;-78
2024/01/30 07:40:26;;;;;;;29.90;15.13;;;;;;;5.57;100.00;102331.63;4995333;28;20046;-79
2024/01/30 07:42:53;;;;;;;31.88;14.60;;;;;;;5.66;100.00;102335.44;5013893;28;20122;-81
2024/01/30 07:45:22;;;;;;;26.42;14.18;;;;;;;5.51;100.00;102341.44;5029606;28;20030;-81
2024/01/30 07:47:49;;;;;;;25.65;14.68;;;;;;;5.60;100.00;102339.19;5014288;28;20048;-81
2024/01/30 07:50:14;;;;;;;30.15;15.48;;;;;;;5.57;100.00;102338.50;5010458;28;20023;-80
2024/01/30 07:52:39;;;;;;;26.55;15.05;;;;;;;5.55;100.00;102343.75;4994971;28;20036;-80
2024/01/30 07:55:07;;;;;;;31.25;15.98;;;;;;;5.53;100.00;102339.59;5008502;28;20025;-80
2024/01/30 07:57:34;;;;;;;30.13;15.15;;;;;;;5.59;100.00;102329.78;5010895;28;20030;-80
2024/01/30 08:00:00;;;;;;;33.13;15.85;;;;;;;5.63;100.00;102340.75;4993594;28;20059;-81
2024/01/30 08:02:25;;;;;;;34.20;16.27;;;;;;;5.64;100.00;102348.38;5011779;28;20043;-79
2024/01/30 08:04:51;;;;;;;38.65;15.60;;;;;;;5.66;100.00;102354.25;5017618;28;20466;-81
2024/01/30 08:07:17;;;;;;;28.42;16.25;;;;;;;5.69;100.00;102361.00;5007971;28;20041;-78
2024/01/30 08:09:43;;;;;;;30.45;15.88;;;;;;;5.72;100.00;102360.81;4994473;28;20061;-81
2024/01/30 08:12:09;;;;;;;30.80;14.68;;;;;;;5.96;100.00;102361.22;5008027;28;20404;-80
2024/01/30 08:14:34;;;;;;;26.73;14.30;;;;;;;5.83;100.00;102363.63;5010498;28;20041;-79
2024/01/30 08:17:00;;;;;;;32.38;14.23;;;;;;;5.80;100.00;102366.38;5014535;28;20026;-81
2024/01/30 08:19:25;;;;;;;28.65;14.15;;;;;;;5.93;100.00;102366.50;5006014;28;20040;-79
2024/01/30 08:21:50;;;;;;;27.17;14.25;;;;;;;5.82;100.00;102366.28;4995126;28;20030;-78
2024/01/30 08:24:16;;;;;;;24.27;13.98;;;;;;;5.84;100.00;102361.88;5007312;28;20073;-80
2024/01/30 08:26:41;;;;;;;26.23;14.90;;;;;;;5.91;100.00;102364.94;5020613;28;20671;-81
2024/01/30 08:29:07;;;;;;;31.85;13.50;;;;;;;5.86;100.00;102372.94;5008090;28;20076;-81
2024/01/30 08:31:32;;;;;;;24.77;13.50;;;;;;;5.87;100.00;102384.03;5027355;28;20036;-80
2024/01/30 08:33:58;;;;;;;26.52;13.18;;;;;;;5.94;100.00;102385.38;5008418;28;20030;-82
2024/01/30 08:36:24;;;;;;;29.73;14.60;;;;;;;5.95;100.00;102387.00;5000340;28;20018;-81
2024/01/30 08:38:50;;;;;;;30.95;13.10;;;;;;;6.00;100.00;102385.03;5010420;28;20038;-79
2024/01/30 08:41:15;;;;;;;25.77;12.25;;;;;;;5.98;100.00;102376.56;5012377;28;20036;-80
2024/01/30 08:43:41;;;;;;;25.80;13.30;;;;;;;6.06;100.00;102386.44;4993086;28;20408;-80
2024/01/30 08:46:06;;;;;;;26.30;12.07;;;;;;;6.16;100.00;102388.41;4999464;28;20037;-81
2024/01/30 08:48:32;;;;;;;26.05;13.70;;;;;;;6.01;100.00;102387.53;5016265;28;20038;-80
2024/01/30 08:50:57;;;;;;;23.67;12.57;;;;;;;6.11;100.00;102389.59;4995119;28;20025;-80
2024/01/30 08:53:23;;;;;;;21.70;12.43;;;;;;;6.12;100.00;102384.34;5026308;28;20060;-79
2024/01/30 08:55:48;;;;;;;25.40;14.23;;;;;;;6.13;100.00;102387.75;4994014;28;20060;-81
2024/01/30 08:58:15;;;;;;;25.48;13.40;;;;;;;6.13;100.00;102390.31;5010701;28;20038;-81
2024/01/30 09:00:40;;;;;;;28.40;13.48;;;;;;;6.16;100.00;102403.00;5009455;28;20488;-78
2024/01/30 09:03:06;;;;;;;23.20;12.52;;;;;;;6.18;100.00;102396.06;5012964;28;20077;-81
2024/01/30 09:05:31;;;;;;;25.67;13.55;;;;;;;6.21;100.00;102395.84;5014049;28;20508;-80
2024/01/30 09:07:57;;;;;;;25.15;13.68;;;;;;;6.31;100.00;102399.56;5010220;28;20061;-80
2024/01/30 09:10:22;;;;;;;30.08;14.50;;;;;;;6.41;100.00;102400.69;5010167;28;20026;-81
2024/01/30 09:12:49;;;;;;;23.67;12.65;;;;;;;6.33;100.00;102394.31;5014724;28;20044;-80
2024/01/30 09:15:14;;;;;;;25.75;13.98;;;;;;;6.38;100.00;102394.88;5014294;28;20032;-78
2024/01/30 09:17:40;;;;;;;27.40;13.35;;;;;;;6.54;100.00;102399.97;5009761;28;20113;-80
2024/01/30 09:20:06;;;;;;;28.88;14.07;;;;;;;6.59;100.00;102405.66;4995695;28;20029;-81
2024/01/30 09:22:31;;;;;;;31.75;13.60;;;;;;;6.66;100.00;102408.72;5007444;28;20064;-81
2024/01/30 09:24:57;;;;;;;24.42;12.48;;;;;;;6.65;100.00;102405.31;4997824;28;20056;-80
2024/01/30 09:27:23;;;;;;;29.45;13.35;;;;;;;6.78;100.00;102400.25;5000664;28;20057;-81
2024/01/30 09:29:48;;;;;;;32.15;13.38;;;;;;;6.91;100.00;102397.75;5014423;28;20034;-80
2024/01/30 09:32:14;;;;;;;26.02;13.15;;;;;;;6.77;100.00;102398.59;5011617;28;20111;-80
2024/01/30 09:34:39;;;;;;;25.30;12.68;;;;;;;6.82;100.00;102402.56;5006951;28;20034;-79
2024/01/30 09:37:05;;;;;;;26.95;13.13;;;;;;;6.94;100.00;102400.16;5012386;28;20030;-81
2024/01/30 09:39:30;;;;;;;22.02;11.75;;;;;;;6.93;100.00;102403.66;5017369;28;20049;-81
2024/01/30 09:42:04;;;;;;;24.63;12.65;;;;;;;6.87;100.00;102407.44;4996284;28;20030;-81
2024/01/30 09:44:30;;;;;;;23.25;12.30;;;;;;;7.04;100.00;102396.09;5024317;28;20388;-81
2024/01/30 09:46:58;;;;;;;21.00;11.95;;;;;;;7.12;100.00;102401.63;4998695;28;20030;-81
2024/01/30 09:49:24;;;;;;;24.88;12.38;;;;;;;7.19;100.00;102408.03;4996680;28;20084;-80
2024/01/30 09:51:50;;;;;;;24.10;12.70;;;;;;;7.27;100.00;102417.91;5011608;28;20037;-81
2024/01/30 09:54:16;;;;;;;24.58;12.95;;;;;;;7.33;100.00;102417.53;5009655;28;20045;-80
2024/01/30 09:56:42;;;;;;;24.15;12.48;;;;;;;7.28;100.00;102406.66;5012517;28;20036;-80
2024/01/30 09:59:08;;;;;;;27.65;13.10;;;;;;;7.32;100.00;102415.03;5009989;28;20045;-81
2024/01/30 10:01:35;;;;;;;22.33;12.32;;;;;;;7.37;100.00;102418.16;5007802;28;20069;-81
2024/01/30 10:04:00;;;;;;;22.73;12.02;;;;;;;7.49;100.00;102412.22;4993289;28;20034;-82
2024/01/30 10:06:27;;;;;;;25.42;12.35;;;;;;;7.46;100.00;102404.69;5012163;28;20591;-82
2024/01/30 10:08:52;;;;;;;22.15;12.40;;;;;;;7.57;100.00;102409.16;4998657;28;20025;-81
2024/01/30 10:11:18;;;;;;;25.35;11.80;;;;;;;7.54;100.00;102409.38;5011678;28;20436;-81
2024/01/30 10:13:43;;;;;;;23.10;12.52;;;;;;;7.79;100.00;102406.03;5006207;28;20038;-81
2024/01/30 10:16:09;;;;;;;24.60;12.82;;;;;;;7.81;100.00;102404.19;5007294;28;20092;-80
2024/01/30 10:18:34;;;;;;;24.33;10.98;;;;;;;7.99;100.00;102405.59;5013288;28;20104;-80
2024/01/30 10:21:00;;;;;;;23.27;11.07;;;;;;;7.89;100.00;102404.53;5026184;28;20025;-80
2024/01/30 10:23:26;;;;;;;28.05;11.23;;;;;;;7.81;100.00;102411.94;5009061;28;20088;-81
2024/01/30 10:25:52;;;;;;;36.03;16.40;;;;;;;7.85;100.00;102418.56;5013366;28;20033;-80
2024/01/30 10:28:17;;;;;;;39.33;17.40;;;;;;;7.82;100.00;102417.91;5002955;28;20045;-80
2024/01/30 10:30:43;;;;;;;37.67;17.92;;;;;;;7.82;100.00;102415.34;4991105;28;20071;-80
2024/01/30 10:33:09;;;;;;;33.65;16.55;;;;;;;7.79;100.00;102414.59;5011171;28;20509;-78
2024/01/30 10:35:34;;;;;;;28.00;15.50;;;;;;;7.79;100.00;102422.34;4990716;28;20029;-80
2024/01/30 10:38:00;;;;;;;32.70;16.23;;;;;;;7.80;100.00;102418.88;4991641;28;20030;-80
2024/01/30 10:40:29;;;;;;;23.20;13.20;;;;;;;7.86;100.00;102407.31;5008740;28;20734;-80
2024/01/30 10:42:56;;;;;;;23.83;13.63;;;;;;;7.86;100.00;102411.66;5010743;28;20120;-80
2024/01/30 10:45:22;;;;;;;23.92;12.70;;;;;;;8.02;100.00;102406.31;4998030;28;20037;-80
2024/01/30 10:47:54;;;;;;;26.45;12.68;;;;;;;8.02;100.00;102401.13;5006904;28;20099;-81
2024/01/30 10:50:20;;;;;;;22.75;12.82;;;;;;;8.11;100.00;102410.88;5010351;28;20036;-80
2024/01/30 10:52:46;;;;;;;23.42;12.05;;;;;;;8.13;100.00;102416.78;5005404;28;20034;-81
2024/01/30 10:55:13;;;;;;;23.48;12.18;;;;;;;8.12;100.00;102420.31;5011724;28;20052;-82
2024/01/30 10:57:39;;;;;;;21.17;10.82;;;;;;;8.10;100.00;102422.97;5023591;28;20041;-82
2024/01/30 11:00:10;;;;;;;25.48;12.07;;;;;;;8.22;100.00;102413.59;5011956;28;20033;-79
2024/01/30 11:02:45;;;;;;;23.83;12.02;;;;;;;8.22;100.00;102420.53;5007976;28;20029;-81